createdAt,value
2019-01-09T00:02:32.953Z,3.77
2019-01-09T00:05:46.693Z,3.76
2019-01-09T00:09:00.803Z,3.72
2019-01-09T00:12:14.959Z,3.49
2019-01-09T00:15:28.734Z,3.55
2019-01-09T00:18:42.531Z,3.51
2019-01-09T00:21:56.705Z,3.45
2019-01-09T00:25:10.902Z,3.36
2019-01-09T00:28:25.286Z,3.44
2019-01-09T00:31:39.227Z,3.45
2019-01-09T00:34:53.306Z,3.52
2019-01-09T00:38:15.434Z,3.62
2019-01-09T00:41:29.176Z,3.63
2019-01-09T00:44:43.048Z,3.64
2019-01-09T00:47:57.119Z,3.38
2019-01-09T00:51:10.995Z,3.53
2019-01-09T00:54:24.787Z,3.58
2019-01-09T00:57:38.536Z,3.54
2019-01-09T01:00:52.515Z,3.57
2019-01-09T01:04:38.243Z,3.59
2019-01-09T01:08:15.383Z,3.65
2019-01-09T01:12:16.631Z,3.56
2019-01-09T01:16:04.193Z,3.64
2019-01-09T01:19:34.027Z,3.78
2019-01-09T01:23:37.799Z,3.82
2019-01-09T01:27:16.442Z,3.73
2019-01-09T01:31:14.139Z,3.65
2019-01-09T01:34:55.217Z,3.62
2019-01-09T01:38:39.887Z,3.71
2019-01-09T01:42:48.284Z,3.77
2019-01-09T01:46:43.515Z,3.76
2019-01-09T01:50:54.075Z,3.73
2019-01-09T01:54:51.814Z,3.68
2019-01-09T01:58:43.699Z,3.78
2019-01-09T02:02:26.982Z,3.58
2019-01-09T02:06:08.554Z,3.63
2019-01-09T02:10:12.564Z,3.49
2019-01-09T02:13:49.033Z,3.59
2019-01-09T02:18:01.854Z,3.59
2019-01-09T02:21:32.376Z,3.59
2019-01-09T02:25:03.131Z,3.56
2019-01-09T02:29:04.443Z,3.62
2019-01-09T02:32:30.021Z,3.56
2019-01-09T02:35:43.626Z,3.42
2019-01-09T02:38:57.153Z,3.37
2019-01-09T02:42:10.721Z,3.30
2019-01-09T02:45:24.549Z,3.15
2019-01-09T02:48:38.197Z,3.23
2019-01-09T02:51:52.317Z,3.15
2019-01-09T02:55:06.469Z,3.14
2019-01-09T02:58:20.377Z,3.25
2019-01-09T03:01:34.338Z,3.29
2019-01-09T03:04:48.233Z,3.37
2019-01-09T03:08:02.514Z,3.38
2019-01-09T03:11:16.391Z,3.40
2019-01-09T03:14:30.549Z,3.42
2019-01-09T03:17:44.696Z,3.35
2019-01-09T03:20:58.864Z,3.42
2019-01-09T03:24:12.612Z,3.42
2019-01-09T03:27:26.631Z,3.50
2019-01-09T03:30:40.209Z,3.55
2019-01-09T03:33:53.979Z,3.49
2019-01-09T03:37:07.523Z,3.27
2019-01-09T03:40:21.279Z,3.36
2019-01-09T03:43:35.337Z,3.41
2019-01-09T03:46:49.399Z,3.40
2019-01-09T03:50:03.572Z,3.38
2019-01-09T03:53:17.458Z,3.32
2019-01-09T03:56:31.310Z,3.17
2019-01-09T03:59:45.474Z,3.07
2019-01-09T04:02:59.541Z,3.06
2019-01-09T04:06:13.470Z,3.04
2019-01-09T04:09:29.459Z,2.92
2019-01-09T04:12:43.389Z,2.98
2019-01-09T04:15:57.559Z,3.12
2019-01-09T04:19:11.614Z,3.27
2019-01-09T04:22:25.377Z,3.30
2019-01-09T04:25:38.950Z,3.28
2019-01-09T04:28:52.880Z,3.26
2019-01-09T04:32:06.577Z,3.11
2019-01-09T04:35:20.612Z,3.21
2019-01-09T04:38:34.602Z,3.15
2019-01-09T04:41:48.134Z,3.13
2019-01-09T04:45:02.052Z,3.24
2019-01-09T04:48:15.875Z,3.41
2019-01-09T04:51:29.426Z,3.42
2019-01-09T04:54:43.320Z,3.57
2019-01-09T04:57:57.203Z,3.56
2019-01-09T05:01:11.080Z,3.50
2019-01-09T05:04:24.656Z,3.40
2019-01-09T05:07:38.273Z,3.39
2019-01-09T05:10:52.165Z,3.32
2019-01-09T05:14:06.289Z,3.25
2019-01-09T05:17:19.957Z,2.97
2019-01-09T05:20:33.596Z,2.90
2019-01-09T05:23:47.356Z,3.00
2019-01-09T05:27:01.585Z,2.93
2019-01-09T05:30:15.628Z,3.11
2019-01-09T05:33:30.337Z,3.13
2019-01-09T05:36:43.916Z,2.84
2019-01-09T05:39:57.456Z,2.89
2019-01-09T05:43:11.051Z,2.59
2019-01-09T05:46:24.830Z,2.44
2019-01-09T05:49:39.683Z,2.38
2019-01-09T05:52:53.741Z,2.26
2019-01-09T05:56:07.747Z,2.11
2019-01-09T05:59:21.763Z,2.18
2019-01-09T06:02:36.024Z,2.19
2019-01-09T06:05:49.669Z,2.08
2019-01-09T06:09:05.044Z,1.93
2019-01-09T06:12:18.591Z,1.82
2019-01-09T06:15:32.340Z,1.72
2019-01-09T06:18:45.891Z,1.85
2019-01-09T06:21:59.612Z,1.73
2019-01-09T06:25:13.272Z,1.86
2019-01-09T06:28:27.099Z,1.77
2019-01-09T06:31:41.202Z,1.97
2019-01-09T06:34:54.827Z,1.95
2019-01-09T06:38:08.591Z,2.04
2019-01-09T06:41:22.108Z,1.96
2019-01-09T06:44:35.643Z,2.09
2019-01-09T06:47:49.860Z,2.21
2019-01-09T06:51:03.875Z,2.06
2019-01-09T06:54:17.448Z,2.14
2019-01-09T06:57:30.957Z,1.93
2019-01-09T07:00:45.081Z,2.07
2019-01-09T07:03:58.736Z,2.02
2019-01-09T07:07:12.368Z,2.04
2019-01-09T07:10:25.899Z,1.98
2019-01-09T07:13:39.720Z,2.04
2019-01-09T07:16:53.667Z,2.01
2019-01-09T07:20:07.717Z,2.10
2019-01-09T07:23:21.257Z,2.07
2019-01-09T07:26:34.995Z,2.12
2019-01-09T07:29:48.722Z,2.09
2019-01-09T07:33:02.688Z,2.08
2019-01-09T07:36:16.483Z,2.35
2019-01-09T07:39:31.093Z,2.25
2019-01-09T07:42:45.230Z,2.28
2019-01-09T07:45:59.104Z,2.10
2019-01-09T07:49:12.997Z,2.30
2019-01-09T07:52:27.307Z,2.35
2019-01-09T07:55:41.266Z,2.37
2019-01-09T07:58:54.837Z,2.34
2019-01-09T08:02:08.627Z,2.38
2019-01-09T08:05:22.395Z,2.29
2019-01-09T08:08:36.090Z,2.26
2019-01-09T08:11:49.890Z,2.27
2019-01-09T08:15:04.354Z,2.29
2019-01-09T08:18:18.304Z,2.34
2019-01-09T08:21:31.542Z,2.38
2019-01-09T08:24:45.725Z,2.45
2019-01-09T08:27:59.671Z,2.46
2019-01-09T08:31:13.737Z,2.51
2019-01-09T08:34:28.156Z,2.66
2019-01-09T08:37:42.809Z,2.77
2019-01-09T08:40:57.367Z,2.74
2019-01-09T08:44:11.477Z,2.92
2019-01-09T08:47:25.178Z,3.20
2019-01-09T08:50:39.128Z,3.42
2019-01-09T08:54:13.044Z,3.64
2019-01-09T08:57:27.040Z,3.98
2019-01-09T09:00:42.761Z,4.09
2019-01-09T09:03:56.998Z,4.06
2019-01-09T09:07:11.039Z,4.13
2019-01-09T09:10:24.926Z,3.97
2019-01-09T09:13:39.303Z,4.15
2019-01-09T09:16:52.827Z,3.95
2019-01-09T09:20:07.749Z,3.98
2019-01-09T09:23:21.379Z,3.98
2019-01-09T09:26:35.428Z,4.12
2019-01-09T09:29:49.176Z,4.60
2019-01-09T09:33:03.097Z,4.53
2019-01-09T09:36:16.635Z,4.73
2019-01-09T09:39:30.426Z,4.97
2019-01-09T09:42:44.211Z,4.91
2019-01-09T09:45:58.703Z,4.81
2019-01-09T09:49:28.159Z,4.94
2019-01-09T09:52:42.689Z,5.06
2019-01-09T09:55:57.455Z,5.40
2019-01-09T09:59:11.903Z,5.12
2019-01-09T10:02:25.788Z,4.83
2019-01-09T10:05:39.954Z,4.89
2019-01-09T10:08:53.936Z,5.04
2019-01-09T10:12:07.883Z,4.97
2019-01-09T10:15:21.708Z,4.58
2019-01-09T10:18:35.625Z,4.58
2019-01-09T10:21:49.694Z,4.55
2019-01-09T10:25:04.087Z,4.40
2019-01-09T10:28:17.794Z,4.18
2019-01-09T10:31:31.657Z,3.98
2019-01-09T10:34:45.543Z,3.90
2019-01-09T10:37:59.379Z,3.61
2019-01-09T10:41:13.436Z,3.67
2019-01-09T10:44:27.317Z,3.62
2019-01-09T10:47:41.246Z,3.69
2019-01-09T10:50:55.045Z,3.71
2019-01-09T10:54:09.173Z,3.76
2019-01-09T10:57:23.178Z,3.64
2019-01-09T11:04:09.256Z,3.74
2019-01-09T11:07:23.403Z,3.87
2019-01-09T11:10:36.939Z,4.06
2019-01-09T11:13:50.578Z,4.06
2019-01-09T11:17:04.412Z,4.22
2019-01-09T11:20:19.497Z,4.43
2019-01-09T11:23:33.515Z,4.38
2019-01-09T11:26:47.545Z,4.27
2019-01-09T11:30:01.373Z,4.33
2019-01-09T11:33:14.948Z,4.29
2019-01-09T11:36:29.032Z,4.28
2019-01-09T11:39:42.671Z,4.12
2019-01-09T11:42:57.118Z,4.11
2019-01-09T11:46:10.915Z,4.05
2019-01-09T11:49:24.923Z,4.24
2019-01-09T12:00:49.061Z,4.60
2019-01-09T12:04:02.771Z,4.55
2019-01-09T12:07:16.687Z,4.74
2019-01-09T12:10:30.724Z,5.13
2019-01-09T12:13:44.381Z,5.14
2019-01-09T12:16:58.051Z,5.21
2019-01-09T12:20:13.746Z,5.11
2019-01-09T12:23:27.561Z,5.14
2019-01-09T12:26:41.401Z,5.12
2019-01-09T12:29:55.358Z,5.05
2019-01-09T12:33:09.049Z,4.91
2019-01-09T12:36:23.231Z,4.94
2019-01-09T12:39:36.916Z,4.75
2019-01-09T12:42:50.606Z,4.56
2019-01-09T12:46:04.973Z,4.46
2019-01-09T12:49:18.704Z,4.33
2019-01-09T12:52:32.374Z,4.30
2019-01-09T12:55:46.758Z,4.31
2019-01-09T12:59:01.630Z,4.21
2019-01-09T13:02:15.722Z,4.36
2019-01-09T13:05:29.489Z,4.40
2019-01-09T13:08:43.075Z,4.44
2019-01-09T13:11:56.747Z,4.67
2019-01-09T13:15:10.948Z,4.69
2019-01-09T13:18:24.878Z,4.42
2019-01-09T13:21:38.612Z,4.21
2019-01-09T13:24:52.361Z,4.26
2019-01-09T13:28:07.608Z,4.42
2019-01-09T13:31:21.468Z,4.41
2019-01-09T13:34:35.675Z,4.36
2019-01-09T13:37:49.479Z,4.27
2019-01-09T13:41:04.104Z,4.19
2019-01-09T13:44:17.867Z,4.15
2019-01-09T13:47:32.433Z,4.07
2019-01-09T13:50:46.215Z,4.13
2019-01-09T13:54:00.303Z,4.09
2019-01-09T13:57:14.047Z,3.97
2019-01-09T14:00:27.650Z,4.03
2019-01-09T14:03:41.379Z,4.11
2019-01-09T14:06:55.105Z,4.16
2019-01-09T14:10:11.652Z,4.07
2019-01-09T14:13:25.289Z,4.09
2019-01-09T14:16:38.917Z,3.96
2019-01-09T14:19:52.946Z,3.84
2019-01-09T14:23:07.022Z,4.01
2019-01-09T14:26:20.855Z,3.97
2019-01-09T14:29:35.200Z,3.87
2019-01-09T14:32:49.975Z,3.87
2019-01-09T14:36:03.989Z,3.84
2019-01-09T14:39:17.737Z,3.94
2019-01-09T14:42:31.838Z,3.74
2019-01-09T14:45:45.509Z,3.57
2019-01-09T14:48:59.233Z,3.48
2019-01-09T14:52:13.265Z,3.36
2019-01-09T14:55:27.012Z,3.26
2019-01-09T14:58:40.783Z,3.20
2019-01-09T15:01:54.955Z,3.20
2019-01-09T15:05:09.040Z,3.14
2019-01-09T15:08:22.784Z,3.14
2019-01-09T15:11:36.425Z,3.20
2019-01-09T15:14:50.032Z,3.30
2019-01-09T15:18:04.301Z,3.19
2019-01-09T15:21:18.471Z,3.12
2019-01-09T15:24:33.536Z,3.18
2019-01-09T15:27:48.303Z,3.22
2019-01-09T15:31:02.112Z,3.30
2019-01-09T15:34:16.158Z,3.35
2019-01-09T15:37:29.940Z,3.27
2019-01-09T15:40:43.658Z,3.25
2019-01-09T15:43:57.429Z,3.09
2019-01-09T15:47:11.147Z,3.02
2019-01-09T15:50:25.447Z,3.02
2019-01-09T15:53:39.752Z,3.04
2019-01-09T15:56:53.766Z,3.02
2019-01-09T16:00:14.015Z,3.05
2019-01-09T16:03:27.747Z,3.03
2019-01-09T16:06:41.687Z,3.07
2019-01-09T16:09:55.811Z,3.06
2019-01-09T16:13:09.541Z,2.97
2019-01-09T16:16:23.445Z,2.92
2019-01-09T16:19:37.678Z,2.96
2019-01-09T16:22:51.315Z,3.00
2019-01-09T16:26:05.298Z,3.08
2019-01-09T16:29:18.960Z,3.11
2019-01-09T16:32:32.612Z,2.96
2019-01-09T16:35:46.636Z,2.93
2019-01-09T16:39:00.565Z,3.02
2019-01-09T16:42:14.144Z,3.07
2019-01-09T16:45:28.139Z,3.15
2019-01-09T16:48:41.989Z,3.10
2019-01-09T16:51:55.962Z,3.00
2019-01-09T16:55:09.938Z,2.88
2019-01-09T16:58:24.117Z,2.99
2019-01-09T17:01:37.896Z,3.00
2019-01-09T17:04:51.727Z,2.92
2019-01-09T17:08:05.802Z,2.97
2019-01-09T17:11:19.630Z,2.99
2019-01-09T17:14:33.470Z,2.93
2019-01-09T17:17:47.348Z,2.97
2019-01-09T17:21:01.755Z,2.95
2019-01-09T17:24:15.957Z,3.09
2019-01-09T17:27:35.880Z,3.08
2019-01-09T17:30:49.852Z,2.95
2019-01-09T17:34:03.876Z,3.09
2019-01-09T17:37:17.779Z,3.00
2019-01-09T17:40:40.694Z,3.05
2019-01-09T17:43:47.669Z,3.00
2019-01-09T17:47:01.389Z,2.99
2019-01-09T17:50:19.653Z,2.90
2019-01-09T17:53:34.314Z,2.82
2019-01-09T17:56:48.032Z,2.88
2019-01-09T18:00:02.086Z,2.92
2019-01-09T18:03:16.179Z,2.89
2019-01-09T18:06:30.799Z,2.87
2019-01-09T18:09:44.829Z,2.94
2019-01-09T18:12:58.704Z,2.99
2019-01-09T18:16:12.473Z,2.86
2019-01-09T18:19:26.307Z,3.03
2019-01-09T18:22:39.988Z,3.03
2019-01-09T18:25:54.055Z,2.88
2019-01-09T18:29:07.873Z,2.94
2019-01-09T18:32:46.658Z,2.90
2019-01-09T18:36:36.404Z,2.99
2019-01-09T18:40:27.224Z,2.95
2019-01-09T18:44:16.347Z,2.83
2019-01-09T18:48:21.366Z,2.59
2019-01-09T18:52:25.619Z,2.62
2019-01-09T18:55:39.484Z,2.61
2019-01-09T18:58:53.334Z,2.64
2019-01-09T19:02:07.185Z,2.62
2019-01-09T19:05:21.269Z,2.56
2019-01-09T19:17:21.850Z,2.45
2019-01-09T19:20:35.519Z,2.37
2019-01-09T19:23:49.261Z,2.37
2019-01-09T19:27:03.970Z,2.53
2019-01-09T19:30:21.359Z,2.54
2019-01-09T19:33:35.160Z,2.29
2019-01-09T19:36:48.889Z,2.41
2019-01-09T19:40:03.613Z,2.38
2019-01-09T19:43:17.398Z,2.43
2019-01-09T19:46:31.217Z,2.57
2019-01-09T19:49:45.414Z,2.55
2019-01-09T19:52:59.245Z,2.52
2019-01-09T19:56:13.268Z,2.68
2019-01-09T19:59:27.227Z,2.58
2019-01-09T20:02:41.403Z,2.59
2019-01-09T20:05:55.332Z,2.60
2019-01-09T20:09:09.301Z,2.56
2019-01-09T20:12:22.979Z,2.58
2019-01-09T20:15:36.925Z,2.66
2019-01-09T20:18:50.956Z,2.60
2019-01-09T20:22:04.974Z,2.44
2019-01-09T20:25:19.220Z,2.49
2019-01-09T20:28:35.455Z,2.53
2019-01-09T20:31:48.895Z,2.56
2019-01-09T20:35:03.662Z,2.55
2019-01-09T20:38:17.551Z,2.57
2019-01-09T20:41:35.445Z,2.53
2019-01-09T20:44:46.961Z,2.47
2019-01-09T20:48:00.901Z,2.33
2019-01-09T20:51:14.655Z,2.24
2019-01-09T20:54:28.582Z,2.41
2019-01-09T20:57:42.991Z,2.19
2019-01-09T21:00:56.812Z,2.12
2019-01-09T21:04:11.066Z,2.20
2019-01-09T21:07:24.742Z,2.40
2019-01-09T21:10:38.535Z,2.53
2019-01-09T21:13:52.242Z,2.20
2019-01-09T21:17:05.925Z,2.41
2019-01-09T21:20:20.329Z,2.26
2019-01-09T21:23:34.033Z,2.31
2019-01-09T21:26:48.433Z,2.29
2019-01-09T21:30:03.498Z,2.26
2019-01-09T21:33:17.055Z,2.37
2019-01-09T21:36:30.840Z,2.22
2019-01-09T21:39:44.948Z,2.36
2019-01-09T21:42:58.763Z,2.48
2019-01-09T21:46:12.765Z,2.57
2019-01-09T21:49:26.580Z,2.52
2019-01-09T21:52:40.556Z,2.45
2019-01-09T21:55:54.316Z,2.51
2019-01-09T21:59:07.855Z,2.48
2019-01-09T22:02:21.533Z,2.41
2019-01-09T22:05:35.657Z,2.42
2019-01-09T22:08:49.583Z,2.40
2019-01-09T22:12:03.658Z,2.45
2019-01-09T22:15:17.700Z,2.41
2019-01-09T22:18:31.949Z,2.40
2019-01-09T22:21:45.488Z,2.24
2019-01-09T22:24:59.833Z,2.23
2019-01-09T22:28:13.746Z,2.16
2019-01-09T22:31:27.312Z,2.21
2019-01-09T22:34:41.049Z,2.13
2019-01-09T22:37:54.945Z,2.10
2019-01-09T22:41:08.644Z,1.85
2019-01-09T22:44:22.550Z,1.92
2019-01-09T22:47:36.443Z,1.78
2019-01-09T22:50:50.279Z,1.69
2019-01-09T22:54:04.028Z,1.64
2019-01-09T22:57:17.625Z,1.73
2019-01-09T23:03:51.597Z,1.59
2019-01-09T23:07:05.653Z,1.74
2019-01-09T23:10:19.294Z,1.72
2019-01-09T23:13:33.241Z,1.82
2019-01-09T23:16:46.799Z,1.95
2019-01-09T23:20:00.489Z,1.89
2019-01-09T23:23:14.606Z,1.91
2019-01-09T23:26:28.401Z,1.85
2019-01-09T23:29:42.019Z,1.81
2019-01-09T23:32:55.885Z,1.85
2019-01-09T23:36:09.871Z,1.92
2019-01-09T23:39:23.645Z,1.89
2019-01-09T23:42:37.498Z,2.01
2019-01-09T23:45:51.511Z,2.20
2019-01-09T23:49:05.171Z,2.07
2019-01-09T23:52:18.918Z,2.09
2019-01-09T23:55:32.576Z,2.00
2019-01-09T23:58:46.235Z,2.02
